createdAt,value
2023-03-27T00:01:13.271Z,98326.31
2023-03-27T00:03:40.866Z,98328.34
2023-03-27T00:06:09.688Z,98331.16
2023-03-27T00:08:36.864Z,98327.88
2023-03-27T00:11:06.928Z,98333.19
2023-03-27T00:13:34.667Z,98329.09
2023-03-27T00:16:02.999Z,98331.00
2023-03-27T00:18:30.078Z,98331.16
2023-03-27T00:20:59.235Z,98328.66
2023-03-27T00:23:26.498Z,98331.31
2023-03-27T00:25:54.818Z,98332.19
2023-03-27T00:28:21.945Z,98334.03
2023-03-27T00:30:49.265Z,98338.22
2023-03-27T00:33:16.474Z,98329.28
2023-03-27T00:35:47.521Z,98327.38
2023-03-27T00:38:15.572Z,98326.34
2023-03-27T00:40:46.852Z,98326.09
2023-03-27T00:43:34.193Z,98319.94
2023-03-27T00:46:21.526Z,98317.06
2023-03-27T00:48:51.518Z,98330.03
2023-03-27T00:51:20.402Z,98334.16
2023-03-27T00:53:47.885Z,98329.56
2023-03-27T00:56:16.738Z,98338.06
2023-03-27T00:58:49.009Z,98331.03
2023-03-27T01:01:17.069Z,98332.56
2023-03-27T01:03:45.743Z,98323.66
2023-03-27T01:06:14.347Z,98326.94
2023-03-27T01:08:43.150Z,98331.22
2023-03-27T01:11:32.904Z,98325.31
2023-03-27T01:14:08.610Z,98325.63
2023-03-27T01:16:36.800Z,98321.72
2023-03-27T01:19:22.769Z,98325.59
2023-03-27T01:21:52.821Z,98321.44
2023-03-27T01:24:22.937Z,98326.09
2023-03-27T01:26:58.316Z,98325.47
2023-03-27T01:29:26.243Z,98323.06
2023-03-27T01:32:17.814Z,98318.94
2023-03-27T01:35:02.169Z,98322.56
2023-03-27T01:37:32.300Z,98323.47
2023-03-27T01:40:18.028Z,98320.91
2023-03-27T01:42:49.352Z,98327.22
2023-03-27T01:45:16.261Z,98319.72
2023-03-27T01:47:51.716Z,98332.09
2023-03-27T01:50:21.852Z,98321.78
2023-03-27T01:53:15.482Z,98316.75
2023-03-27T01:55:47.348Z,98315.91
2023-03-27T01:58:17.224Z,98325.66
2023-03-27T02:00:51.749Z,98319.78
2023-03-27T02:03:21.122Z,98309.56
2023-03-27T02:05:58.558Z,98325.28
2023-03-27T02:08:49.657Z,98329.75
2023-03-27T02:11:21.425Z,98318.50
2023-03-27T02:13:51.705Z,98317.59
2023-03-27T02:16:20.982Z,98324.53
2023-03-27T02:18:56.880Z,98328.94
2023-03-27T02:21:24.223Z,98326.38
2023-03-27T02:23:51.915Z,98332.34
2023-03-27T02:26:19.398Z,98332.41
2023-03-27T02:28:51.785Z,98340.97
2023-03-27T02:31:37.583Z,98341.88
2023-03-27T02:34:20.878Z,98341.09
2023-03-27T02:36:59.123Z,98358.59
2023-03-27T02:39:43.345Z,98356.22
2023-03-27T02:42:18.232Z,98360.69
2023-03-27T02:45:17.694Z,98364.28
2023-03-27T02:48:08.126Z,98364.44
2023-03-27T02:50:54.827Z,98373.13
2023-03-27T02:53:24.198Z,98374.06
2023-03-27T02:55:54.076Z,98376.72
2023-03-27T02:58:27.209Z,98384.69
2023-03-27T03:01:18.412Z,98383.84
2023-03-27T03:04:12.454Z,98378.69
2023-03-27T03:06:59.279Z,98378.59
2023-03-27T03:09:28.299Z,98375.94
2023-03-27T03:11:55.768Z,98377.75
2023-03-27T03:14:45.929Z,98370.19
2023-03-27T03:17:13.728Z,98363.41
2023-03-27T03:19:41.137Z,98363.56
2023-03-27T03:22:08.284Z,98360.94
2023-03-27T03:24:37.116Z,98360.09
2023-03-27T03:27:04.687Z,98369.75
2023-03-27T03:29:40.327Z,98373.25
2023-03-27T03:32:34.271Z,98380.88
2023-03-27T03:35:01.976Z,98370.34
2023-03-27T03:37:38.955Z,98372.06
2023-03-27T03:40:14.992Z,98369.31
2023-03-27T03:42:47.164Z,98377.97
2023-03-27T03:45:15.654Z,98384.91
2023-03-27T03:47:44.392Z,98383.06
2023-03-27T03:50:12.576Z,98394.19
2023-03-27T03:52:40.441Z,98387.94
2023-03-27T03:55:08.437Z,98399.88
2023-03-27T03:57:36.891Z,98400.63
2023-03-27T04:00:09.069Z,98394.41
2023-03-27T04:02:54.258Z,98394.94
2023-03-27T04:05:22.579Z,98397.13
2023-03-27T04:07:54.657Z,98396.50
2023-03-27T04:10:41.770Z,98399.16
2023-03-27T04:13:18.457Z,98394.69
2023-03-27T04:15:56.665Z,98390.00
2023-03-27T04:18:33.291Z,98394.91
2023-03-27T04:21:04.621Z,98387.66
2023-03-27T04:23:32.150Z,98385.53
2023-03-27T04:26:03.524Z,98382.28
2023-03-27T04:28:57.099Z,98383.59
2023-03-27T04:31:46.762Z,98373.38
2023-03-27T04:34:32.933Z,98379.50
2023-03-27T04:37:07.983Z,98384.22
2023-03-27T04:39:43.155Z,98379.09
2023-03-27T04:42:11.031Z,98376.94
2023-03-27T04:44:39.390Z,98371.69
2023-03-27T04:47:09.032Z,98378.06
2023-03-27T04:49:44.175Z,98372.59
2023-03-27T04:52:26.222Z,98380.19
2023-03-27T04:54:54.196Z,98377.03
2023-03-27T04:57:22.723Z,98377.81
2023-03-27T04:59:50.562Z,98380.03
2023-03-27T05:02:45.112Z,98377.00
2023-03-27T05:05:25.696Z,98380.16
2023-03-27T05:07:53.540Z,98393.34
2023-03-27T05:10:24.147Z,98381.69
2023-03-27T05:12:53.252Z,98381.31
2023-03-27T05:15:21.773Z,98390.28
2023-03-27T05:17:55.382Z,98385.13
2023-03-27T05:20:25.443Z,98388.47
2023-03-27T05:22:56.739Z,98387.16
2023-03-27T05:25:29.271Z,98379.91
2023-03-27T05:27:58.524Z,98386.94
2023-03-27T05:30:29.669Z,98375.22
2023-03-27T05:33:17.049Z,98372.28
2023-03-27T05:35:48.874Z,98378.16
2023-03-27T05:38:18.231Z,98375.56
2023-03-27T05:41:04.533Z,98375.44
2023-03-27T05:43:36.394Z,98374.06
2023-03-27T05:46:04.859Z,98375.63
2023-03-27T05:48:32.714Z,98378.78
2023-03-27T05:51:05.814Z,98381.09
2023-03-27T05:53:37.042Z,98380.56
2023-03-27T05:56:27.857Z,98378.53
2023-03-27T05:58:58.752Z,98381.06
2023-03-27T06:01:28.406Z,98381.38
2023-03-27T06:03:59.007Z,98377.56
2023-03-27T06:06:50.819Z,98389.59
2023-03-27T06:09:18.203Z,98388.34
2023-03-27T06:12:03.176Z,98384.69
2023-03-27T06:14:33.647Z,98382.28
2023-03-27T06:17:15.610Z,98384.28
2023-03-27T06:19:49.774Z,98384.41
2023-03-27T06:22:17.325Z,98380.69
2023-03-27T06:24:46.739Z,98379.34
2023-03-27T06:27:18.767Z,98379.31
2023-03-27T06:29:46.123Z,98371.25
2023-03-27T06:32:14.521Z,98372.63
2023-03-27T06:34:50.425Z,98380.19
2023-03-27T06:37:37.343Z,98387.06
2023-03-27T06:40:10.130Z,98382.94
2023-03-27T06:42:39.429Z,98388.41
2023-03-27T06:45:26.861Z,98387.25
2023-03-27T06:48:29.544Z,98380.28
2023-03-27T06:50:59.152Z,98377.28
2023-03-27T06:53:28.371Z,98381.97
2023-03-27T06:55:57.391Z,98388.56
2023-03-27T06:58:27.802Z,98374.84
2023-03-27T07:00:56.374Z,98378.59
2023-03-27T07:03:23.747Z,98374.53
2023-03-27T07:06:09.922Z,98374.94
2023-03-27T07:08:52.648Z,98375.13
2023-03-27T07:11:20.233Z,98379.72
2023-03-27T07:13:57.127Z,98365.16
2023-03-27T07:16:27.928Z,98379.84
2023-03-27T07:18:56.076Z,98379.66
2023-03-27T07:21:24.568Z,98380.34
2023-03-27T07:23:52.665Z,98372.72
2023-03-27T07:26:30.668Z,98382.34
2023-03-27T07:29:11.385Z,98385.56
2023-03-27T07:31:55.392Z,98388.31
2023-03-27T07:34:34.287Z,98393.22
2023-03-27T07:37:11.619Z,98387.31
2023-03-27T07:39:49.312Z,98378.81
2023-03-27T07:42:17.388Z,98384.25
2023-03-27T07:44:58.278Z,98381.41
2023-03-27T07:47:25.809Z,98389.88
2023-03-27T07:49:53.885Z,98374.44
2023-03-27T07:52:23.133Z,98372.63
2023-03-27T07:55:00.343Z,98371.38
2023-03-27T07:57:54.531Z,98375.03
2023-03-27T08:00:26.753Z,98374.66
2023-03-27T08:03:10.032Z,98376.22
2023-03-27T08:05:43.126Z,98374.50
2023-03-27T08:08:12.605Z,98367.97
2023-03-27T08:11:13.430Z,98376.19
2023-03-27T08:13:47.165Z,98366.66
2023-03-27T08:16:17.271Z,98353.16
2023-03-27T08:18:47.242Z,98352.53
2023-03-27T08:21:15.106Z,98353.75
2023-03-27T08:23:43.021Z,98350.00
2023-03-27T08:26:28.988Z,98353.09
2023-03-27T08:28:59.029Z,98341.00
2023-03-27T08:31:30.924Z,98346.97
2023-03-27T08:34:02.613Z,98349.78
2023-03-27T08:36:44.552Z,98350.97
2023-03-27T08:39:13.359Z,98337.44
2023-03-27T08:41:53.082Z,98335.00
2023-03-27T08:44:27.208Z,98333.22
2023-03-27T08:47:01.110Z,98335.31
2023-03-27T08:49:37.322Z,98330.97
2023-03-27T08:52:25.080Z,98327.09
2023-03-27T08:54:59.105Z,98323.38
2023-03-27T08:57:45.793Z,98320.38
2023-03-27T09:00:21.640Z,98319.78
2023-03-27T09:03:22.684Z,98326.88
2023-03-27T09:05:52.934Z,98311.53
2023-03-27T09:08:23.515Z,98323.44
2023-03-27T09:11:02.891Z,98326.28
2023-03-27T09:13:46.987Z,98311.97
2023-03-27T09:16:28.340Z,98315.41
2023-03-27T09:18:57.678Z,98320.38
2023-03-27T09:21:47.006Z,98317.00
2023-03-27T09:24:30.091Z,98322.63
2023-03-27T09:27:19.065Z,98313.75
2023-03-27T09:30:20.017Z,98310.28
2023-03-27T09:33:03.705Z,98297.66
2023-03-27T09:35:32.364Z,98295.47
2023-03-27T09:38:01.424Z,98294.88
2023-03-27T09:40:35.324Z,98291.69
2023-03-27T09:43:10.352Z,98302.66
2023-03-27T09:45:41.084Z,98288.16
2023-03-27T09:48:15.079Z,98297.09
2023-03-27T09:50:47.630Z,98296.31
2023-03-27T09:53:28.595Z,98291.25
2023-03-27T09:56:18.591Z,98291.59
2023-03-27T09:58:52.377Z,98297.06
2023-03-27T10:01:29.728Z,98289.13
2023-03-27T10:04:11.379Z,98284.00
2023-03-27T10:06:44.807Z,98293.34
2023-03-27T10:09:30.424Z,98296.94
2023-03-27T10:12:11.415Z,98294.19
2023-03-27T10:14:41.054Z,98304.69
2023-03-27T10:17:23.732Z,98300.97
2023-03-27T10:20:05.839Z,98294.66
2023-03-27T10:22:41.746Z,98288.47
2023-03-27T10:25:18.247Z,98291.94
2023-03-27T10:27:54.789Z,98283.16
2023-03-27T10:30:42.778Z,98288.38
2023-03-27T10:33:37.595Z,98289.41
2023-03-27T10:36:37.750Z,98291.25
2023-03-27T10:39:14.702Z,98289.00
2023-03-27T10:42:13.055Z,98287.69
2023-03-27T10:44:46.722Z,98289.00
2023-03-27T10:47:19.155Z,98272.97
2023-03-27T10:52:33.012Z,98269.25
2023-03-27T10:55:30.321Z,98269.09
2023-03-27T10:58:02.665Z,98260.66
2023-03-27T11:00:39.993Z,98259.69
2023-03-27T11:03:21.046Z,98267.84
2023-03-27T11:05:54.906Z,98262.75
2023-03-27T11:08:42.888Z,98260.91
2023-03-27T11:11:16.942Z,98259.13
2023-03-27T11:13:49.540Z,98258.75
2023-03-27T11:16:24.067Z,98259.03
2023-03-27T11:19:11.638Z,98238.81
2023-03-27T11:22:05.080Z,98247.66
2023-03-27T11:24:42.387Z,98261.75
2023-03-27T11:27:23.739Z,98263.81
2023-03-27T11:29:57.585Z,98260.34
2023-03-27T11:32:41.276Z,98248.94
2023-03-27T11:35:16.249Z,98251.47
2023-03-27T11:37:54.411Z,98260.00
2023-03-27T11:40:28.742Z,98256.81
2023-03-27T11:43:01.840Z,98258.50
2023-03-27T11:45:44.708Z,98270.78
2023-03-27T11:48:27.514Z,98257.41
2023-03-27T11:51:04.699Z,98255.75
2023-03-27T11:53:52.288Z,98248.63
2023-03-27T11:56:56.616Z,98240.41
2023-03-27T11:59:50.680Z,98233.72
2023-03-27T12:02:30.235Z,98230.75
2023-03-27T12:05:18.842Z,98220.88
2023-03-27T12:07:59.948Z,98214.31
2023-03-27T12:10:30.713Z,98227.06
2023-03-27T12:13:09.472Z,98217.63
2023-03-27T12:15:39.972Z,98214.69
2023-03-27T12:18:20.140Z,98221.50
2023-03-27T12:20:57.136Z,98221.13
2023-03-27T12:23:33.654Z,98219.03
2023-03-27T12:26:35.900Z,98209.94
2023-03-27T12:29:33.024Z,98197.25
2023-03-27T12:32:21.864Z,98204.50
2023-03-27T12:34:57.975Z,98202.47
2023-03-27T12:37:35.021Z,98201.03
2023-03-27T12:40:02.786Z,98198.19
2023-03-27T12:42:43.866Z,98203.41
2023-03-27T12:45:14.290Z,98198.00
2023-03-27T12:47:45.820Z,98206.00
2023-03-27T12:50:22.780Z,98197.22
2023-03-27T12:52:53.911Z,98192.94
2023-03-27T12:55:32.812Z,98196.91
2023-03-27T12:58:04.482Z,98195.56
2023-03-27T13:01:02.784Z,98197.31
2023-03-27T13:04:00.407Z,98189.38
2023-03-27T13:06:28.518Z,98188.28
2023-03-27T13:09:00.188Z,98184.06
2023-03-27T13:12:02.267Z,98189.28
2023-03-27T13:14:32.715Z,98175.34
2023-03-27T13:17:00.465Z,98172.38
2023-03-27T13:19:40.272Z,98159.75
2023-03-27T13:22:19.638Z,98166.22
2023-03-27T13:24:47.835Z,98158.03
2023-03-27T13:27:22.346Z,98150.66
2023-03-27T13:29:52.109Z,98141.38
2023-03-27T13:32:40.418Z,98150.13
2023-03-27T13:35:24.555Z,98148.47
2023-03-27T13:37:52.394Z,98144.09
2023-03-27T13:40:29.869Z,98137.00
2023-03-27T13:43:08.198Z,98146.22
2023-03-27T13:45:51.761Z,98145.63
2023-03-27T13:49:00.861Z,98144.97
2023-03-27T13:51:48.532Z,98146.09
2023-03-27T13:54:16.322Z,98144.25
2023-03-27T13:56:53.474Z,98149.22
2023-03-27T13:59:32.522Z,98145.88
2023-03-27T14:02:33.608Z,98138.66
2023-03-27T14:05:24.506Z,98138.38
2023-03-27T14:08:13.993Z,98133.16
2023-03-27T14:11:29.406Z,98136.63
2023-03-27T14:14:19.244Z,98131.50
2023-03-27T14:16:50.628Z,98126.38
2023-03-27T14:19:21.625Z,98132.41
2023-03-27T14:21:51.448Z,98123.56
2023-03-27T14:24:26.120Z,98118.91
2023-03-27T14:27:03.642Z,98123.72
2023-03-27T14:29:32.677Z,98117.75
2023-03-27T14:32:05.169Z,98120.34
2023-03-27T14:34:47.271Z,98115.38
2023-03-27T14:38:00.297Z,98119.75
2023-03-27T14:40:48.188Z,98109.41
2023-03-27T14:43:19.554Z,98120.09
2023-03-27T14:45:54.848Z,98108.31
2023-03-27T14:48:26.285Z,98115.50
2023-03-27T14:50:58.951Z,98109.75
2023-03-27T14:54:06.376Z,98109.41
2023-03-27T14:56:55.358Z,98107.81
2023-03-27T14:59:36.831Z,98103.63
2023-03-27T15:02:35.370Z,98102.53
2023-03-27T15:05:13.196Z,98103.06
2023-03-27T15:07:47.282Z,98103.47
2023-03-27T15:10:24.434Z,98095.16
2023-03-27T15:13:10.930Z,98104.44
2023-03-27T15:15:47.229Z,98098.97
2023-03-27T15:18:25.351Z,98092.75
2023-03-27T15:20:54.614Z,98095.09
2023-03-27T15:23:34.116Z,98093.41
2023-03-27T15:26:07.622Z,98097.75
2023-03-27T15:29:02.261Z,98091.53
2023-03-27T15:31:31.639Z,98093.75
2023-03-27T15:34:16.995Z,98090.78
2023-03-27T15:36:47.184Z,98087.81
2023-03-27T15:39:22.624Z,98089.03
2023-03-27T15:41:53.554Z,98088.28
2023-03-27T15:44:24.878Z,98089.06
2023-03-27T15:46:58.229Z,98083.56
2023-03-27T15:49:38.912Z,98087.16
2023-03-27T15:52:31.897Z,98087.34
2023-03-27T15:55:01.887Z,98085.31
2023-03-27T15:57:29.953Z,98084.13
2023-03-27T16:00:08.830Z,98084.19
2023-03-27T16:02:41.869Z,98091.81
2023-03-27T16:05:17.673Z,98090.75
2023-03-27T16:07:48.813Z,98092.13
2023-03-27T16:10:34.449Z,98082.34
2023-03-27T16:13:04.303Z,98081.41
2023-03-27T16:15:38.057Z,98080.81
2023-03-27T16:18:30.817Z,98083.88
2023-03-27T16:21:16.464Z,98079.16
2023-03-27T16:23:44.543Z,98083.91
2023-03-27T16:26:18.815Z,98077.13
2023-03-27T16:28:46.816Z,98084.75
2023-03-27T16:31:19.489Z,98079.81
2023-03-27T16:33:47.453Z,98090.09
2023-03-27T16:36:20.454Z,98089.97
2023-03-27T16:38:47.468Z,98094.06
2023-03-27T16:41:16.639Z,98093.00
2023-03-27T16:43:45.111Z,98096.13
2023-03-27T16:46:22.662Z,98093.59
2023-03-27T16:48:52.214Z,98098.78
2023-03-27T16:51:21.014Z,98092.75
2023-03-27T16:53:48.225Z,98097.19
2023-03-27T16:56:16.169Z,98095.41
2023-03-27T16:58:43.397Z,98085.38
2023-03-27T17:01:11.137Z,98100.84
2023-03-27T17:03:38.892Z,98088.28
2023-03-27T17:06:09.014Z,98090.34
2023-03-27T17:08:37.336Z,98089.47
2023-03-27T17:11:10.282Z,98099.88
2023-03-27T17:13:40.841Z,98104.09
2023-03-27T17:16:09.922Z,98085.16
2023-03-27T17:18:37.172Z,98097.53
2023-03-27T17:21:04.730Z,98101.22
2023-03-27T17:23:31.953Z,98107.38
2023-03-27T17:26:04.068Z,98115.97
2023-03-27T17:28:31.785Z,98115.13
2023-03-27T17:31:04.543Z,98117.66
2023-03-27T17:33:33.127Z,98121.31
2023-03-27T17:36:00.677Z,98115.56
2023-03-27T17:38:28.441Z,98116.19
2023-03-27T17:40:55.932Z,98107.69
2023-03-27T17:43:23.178Z,98123.25
2023-03-27T17:45:51.446Z,98131.03
2023-03-27T17:48:18.860Z,98123.78
2023-03-27T17:50:54.747Z,98119.59
2023-03-27T17:53:29.354Z,98119.72
2023-03-27T17:55:57.714Z,98120.84
2023-03-27T17:58:29.196Z,98115.53
2023-03-27T18:00:56.545Z,98112.53
2023-03-27T18:03:24.168Z,98110.47
2023-03-27T18:05:51.531Z,98115.78
2023-03-27T18:08:20.094Z,98110.00
2023-03-27T18:10:50.555Z,98117.59
2023-03-27T18:13:18.975Z,98115.69
2023-03-27T18:15:46.709Z,98116.19
2023-03-27T18:18:13.894Z,98113.31
2023-03-27T18:20:41.645Z,98114.78
2023-03-27T18:23:08.670Z,98116.34
2023-03-27T18:25:38.134Z,98114.56
2023-03-27T18:28:05.795Z,98112.38
2023-03-27T18:30:32.873Z,98099.00
2023-03-27T18:33:00.185Z,98102.50
2023-03-27T18:35:27.613Z,98102.72
2023-03-27T18:37:54.751Z,98104.66
2023-03-27T18:40:22.715Z,98105.97
2023-03-27T18:42:50.267Z,98113.66
2023-03-27T18:45:18.288Z,98108.00
2023-03-27T18:47:45.952Z,98113.81
2023-03-27T18:50:14.604Z,98105.84
2023-03-27T18:52:42.109Z,98106.59
2023-03-27T18:55:11.497Z,98102.38
2023-03-27T18:57:38.799Z,98104.53
2023-03-27T19:00:15.614Z,98094.28
2023-03-27T19:02:43.019Z,98091.16
2023-03-27T19:05:11.053Z,98077.44
2023-03-27T19:07:45.001Z,98065.34
2023-03-27T19:10:13.169Z,98061.38
2023-03-27T19:12:40.463Z,98056.56
2023-03-27T19:15:19.767Z,98050.03
2023-03-27T19:17:53.900Z,98050.31
2023-03-27T19:20:47.784Z,98049.91
2023-03-27T19:23:23.148Z,98048.00
2023-03-27T19:25:52.144Z,98051.72
2023-03-27T19:28:20.159Z,98040.88
2023-03-27T19:30:48.252Z,98043.88
2023-03-27T19:33:15.906Z,98040.75
2023-03-27T19:35:42.995Z,98041.59
2023-03-27T19:38:12.651Z,98044.84
2023-03-27T19:40:39.950Z,98037.09
2023-03-27T19:43:07.265Z,98040.50
2023-03-27T19:45:34.722Z,98035.22
2023-03-27T19:48:01.982Z,98037.97
2023-03-27T19:50:29.608Z,98036.50
2023-03-27T19:53:14.726Z,98035.78
2023-03-27T19:55:43.186Z,98038.06
2023-03-27T19:58:12.500Z,98040.59
2023-03-27T20:00:39.615Z,98035.63
2023-03-27T20:03:10.584Z,98045.28
2023-03-27T20:05:39.658Z,98032.84
2023-03-27T20:08:06.980Z,98037.56
2023-03-27T20:10:34.562Z,98028.03
2023-03-27T20:13:01.944Z,98028.13
2023-03-27T20:15:30.053Z,98026.66
2023-03-27T20:17:57.307Z,98024.03
2023-03-27T20:20:24.523Z,98018.50
2023-03-27T20:22:57.954Z,98013.53
2023-03-27T20:25:25.830Z,98013.16
2023-03-27T20:27:53.246Z,98006.31
2023-03-27T20:30:20.609Z,98022.06
2023-03-27T20:32:49.638Z,98011.47
2023-03-27T20:35:24.307Z,98014.59
2023-03-27T20:37:58.070Z,98010.59
2023-03-27T20:40:30.284Z,98011.34
2023-03-27T20:43:06.145Z,98003.03
2023-03-27T20:45:33.556Z,98011.72
2023-03-27T20:48:03.543Z,97995.06
2023-03-27T20:50:32.012Z,97999.50
2023-03-27T20:52:59.524Z,97994.69
2023-03-27T20:55:33.689Z,97986.34
2023-03-27T20:58:06.802Z,97999.22
2023-03-27T21:00:34.848Z,97992.13
2023-03-27T21:03:02.558Z,97991.63
2023-03-27T21:05:32.461Z,97980.97
2023-03-27T21:08:00.054Z,97978.78
2023-03-27T21:10:27.432Z,97976.72
2023-03-27T21:12:57.137Z,97978.03
2023-03-27T21:15:24.565Z,97984.25
2023-03-27T21:17:51.747Z,97984.22
2023-03-27T21:20:19.001Z,97989.13
2023-03-27T21:22:46.535Z,97979.41
2023-03-27T21:25:13.843Z,97980.88
2023-03-27T21:27:41.325Z,97978.97
2023-03-27T21:30:10.144Z,97983.00
2023-03-27T21:32:37.237Z,97971.69
2023-03-27T21:35:04.512Z,97968.03
2023-03-27T21:37:32.625Z,97970.38
2023-03-27T21:39:59.966Z,97961.72
2023-03-27T21:42:27.354Z,97964.69
2023-03-27T21:44:56.682Z,97964.13
2023-03-27T21:47:31.623Z,97959.28
2023-03-27T21:50:01.904Z,97956.75
2023-03-27T21:52:29.022Z,97969.97
2023-03-27T21:55:02.468Z,97964.69
2023-03-27T21:57:30.626Z,97976.19
2023-03-27T21:59:58.369Z,97963.09
2023-03-27T22:02:25.996Z,97971.31
2023-03-27T22:04:53.559Z,97964.91
2023-03-27T22:07:21.037Z,97964.69
2023-03-27T22:09:48.099Z,97963.59
2023-03-27T22:12:16.797Z,97962.66
2023-03-27T22:14:43.990Z,97966.47
2023-03-27T22:17:11.430Z,97963.81
2023-03-27T22:19:38.660Z,97968.78
2023-03-27T22:22:05.910Z,97975.69
2023-03-27T22:24:33.240Z,97967.53
2023-03-27T22:27:00.580Z,97968.78
2023-03-27T22:29:27.985Z,97968.69
2023-03-27T22:31:55.151Z,97960.13
2023-03-27T22:34:22.588Z,97972.72
2023-03-27T22:36:49.679Z,97964.78
2023-03-27T22:39:17.143Z,97966.03
2023-03-27T22:41:44.558Z,97967.22
2023-03-27T22:44:11.975Z,97972.59
2023-03-27T22:46:39.200Z,97961.59
2023-03-27T22:49:06.829Z,97963.91
2023-03-27T22:51:34.038Z,97954.53
2023-03-27T22:54:01.182Z,97954.84
2023-03-27T22:56:28.474Z,97941.63
2023-03-27T22:58:55.806Z,97950.50
2023-03-27T23:01:23.159Z,97943.97
2023-03-27T23:03:50.614Z,97937.91
2023-03-27T23:06:20.004Z,97930.31
2023-03-27T23:08:49.213Z,97918.38
2023-03-27T23:11:17.805Z,97926.41
2023-03-27T23:13:45.284Z,97916.78
2023-03-27T23:16:15.393Z,97907.06
2023-03-27T23:18:42.838Z,97906.00
2023-03-27T23:21:11.801Z,97909.63
2023-03-27T23:23:40.735Z,97914.78
2023-03-27T23:26:08.874Z,97919.00
2023-03-27T23:28:38.866Z,97921.53
2023-03-27T23:31:10.581Z,97923.88
2023-03-27T23:33:40.124Z,97925.38
2023-03-27T23:36:09.186Z,97919.41
2023-03-27T23:38:37.628Z,97919.78
2023-03-27T23:41:06.917Z,97917.88
2023-03-27T23:43:35.388Z,97911.84
2023-03-27T23:46:04.734Z,97909.72
2023-03-27T23:48:32.082Z,97908.88
2023-03-27T23:50:59.358Z,97907.41
2023-03-27T23:53:28.322Z,97902.75
2023-03-27T23:55:57.679Z,97901.59
2023-03-27T23:58:29.912Z,97899.38
